Time;durP1;ratioP1;P1;durP2;ratioP2;P2;SDS_P1;SDS_P2;PMS_P1;PMS_P2;Temp;Humidity;BMP_temperature;BMP_pressure;BME280_temperature;BME280_humidity;BME280_pressure;Samples;Min_cycle;Max_cycle;Signal;HPM_P1;HPM_P2
2023/05/09 00:00:50;;;;;;;15.77;14.57;;;15.40;99.90;;;;;;5030543;28;20419;-71
2023/05/09 00:03:16;;;;;;;14.68;13.45;;;15.40;99.90;;;;;;5031950;28;20473;-71
2023/05/09 00:05:45;;;;;;;15.27;13.95;;;15.40;99.90;;;;;;5032533;28;20419;-71
2023/05/09 00:08:12;;;;;;;14.90;13.70;;;15.40;99.90;;;;;;5042297;28;20428;-71
2023/05/09 00:10:39;;;;;;;15.52;14.32;;;15.40;99.90;;;;;;5042737;28;20419;-71
2023/05/09 00:13:06;;;;;;;16.45;15.05;;;15.40;99.90;;;;;;5051659;28;20416;-72
2023/05/09 00:15:33;;;;;;;16.00;14.70;;;15.30;99.90;;;;;;5030881;28;20422;-71
2023/05/09 00:18:00;;;;;;;16.20;14.80;;;15.30;99.90;;;;;;5032714;28;20462;-71
2023/05/09 00:20:27;;;;;;;16.50;15.20;;;15.30;99.90;;;;;;5031303;28;20426;-72
2023/05/09 00:22:55;;;;;;;17.45;16.05;;;15.30;99.90;;;;;;5031699;28;20427;-72
2023/05/09 00:25:22;;;;;;;16.52;15.05;;;15.30;99.90;;;;;;5038555;28;20442;-71
2023/05/09 00:27:48;;;;;;;16.73;15.32;;;15.30;99.90;;;;;;5038790;28;20414;-72
2023/05/09 00:30:15;;;;;;;16.95;15.55;;;15.30;99.90;;;;;;5028989;28;20434;-71
2023/05/09 00:32:42;;;;;;;17.70;16.30;;;15.30;99.90;;;;;;5031616;28;20445;-71
2023/05/09 00:35:09;;;;;;;16.30;15.00;;;15.30;99.90;;;;;;5036616;28;20427;-71
2023/05/09 00:37:36;;;;;;;16.92;15.52;;;15.30;99.90;;;;;;5030851;28;20459;-71
2023/05/09 00:40:06;;;;;;;16.92;15.63;;;15.30;99.90;;;;;;5030867;28;20423;-71
2023/05/09 00:42:33;;;;;;;17.30;15.60;;;15.30;99.90;;;;;;5029636;28;20437;-71
2023/05/09 00:45:00;;;;;;;18.70;17.10;;;15.30;99.90;;;;;;5031137;28;20801;-72
2023/05/09 00:47:28;;;;;;;18.30;16.70;;;15.30;99.90;;;;;;5036129;28;20423;-71
2023/05/09 00:49:55;;;;;;;18.50;17.00;;;15.30;99.90;;;;;;5044225;28;20891;-71
2023/05/09 00:52:24;;;;;;;17.95;16.48;;;15.30;99.90;;;;;;5031751;28;20435;-71
2023/05/09 00:54:52;;;;;;;17.30;15.90;;;15.30;99.90;;;;;;5044802;28;20417;-71
2023/05/09 00:57:20;;;;;;;18.73;17.23;;;15.40;99.90;;;;;;5039014;28;20436;-72
2023/05/09 00:59:47;;;;;;;18.02;16.52;;;15.30;99.90;;;;;;5041309;28;20450;-71
2023/05/09 01:02:14;;;;;;;17.58;16.08;;;15.40;99.90;;;;;;5035901;28;20423;-71
2023/05/09 01:04:41;;;;;;;18.70;17.00;;;15.40;99.90;;;;;;5034674;28;20916;-70
2023/05/09 01:07:14;;;;;;;18.70;16.95;;;15.40;99.90;;;;;;5043107;28;20433;-70
2023/05/09 01:09:47;;;;;;;18.33;16.73;;;15.40;99.90;;;;;;5036299;28;20429;-71
2023/05/09 01:12:26;;;;;;;18.70;17.10;;;15.40;99.90;;;;;;5031186;28;20423;-72
2023/05/09 01:15:00;;;;;;;19.77;17.98;;;15.40;99.90;;;;;;5030685;28;20439;-72
2023/05/09 01:17:34;;;;;;;19.20;17.50;;;15.40;99.90;;;;;;5051686;28;20435;-70
2023/05/09 01:20:09;;;;;;;20.00;18.23;;;15.30;99.90;;;;;;5041904;28;20419;-70
2023/05/09 01:22:40;;;;;;;19.50;17.80;;;15.40;99.90;;;;;;5055541;28;20402;-71
2023/05/09 01:25:35;;;;;;;19.20;17.60;;;15.40;99.90;;;;;;5056056;28;20848;-72
2023/05/09 01:28:13;;;;;;;20.52;18.73;;;15.40;99.90;;;;;;5038053;28;20411;-71
2023/05/09 01:30:43;;;;;;;19.25;17.55;;;15.30;99.90;;;;;;5030225;28;21081;-72
2023/05/09 01:33:13;;;;;;;20.40;18.73;;;15.40;99.90;;;;;;5035415;28;20436;-71
2023/05/09 01:35:44;;;;;;;20.05;18.33;;;15.40;99.90;;;;;;5033761;28;20419;-70
2023/05/09 01:38:17;;;;;;;19.42;17.83;;;15.40;99.90;;;;;;5028845;28;20427;-71
2023/05/09 01:40:47;;;;;;;19.00;17.40;;;15.40;99.90;;;;;;5042306;28;20413;-70
2023/05/09 01:43:17;;;;;;;20.88;18.98;;;15.40;99.90;;;;;;5042862;28;20409;-72
2023/05/09 01:45:47;;;;;;;19.83;18.27;;;15.40;99.90;;;;;;5040721;28;20433;-71
2023/05/09 01:48:15;;;;;;;20.52;18.75;;;15.40;99.90;;;;;;5030489;28;20426;-71
2023/05/09 01:50:44;;;;;;;20.42;18.58;;;15.40;99.90;;;;;;5046395;28;20815;-71
2023/05/09 01:53:11;;;;;;;19.25;17.45;;;15.40;99.90;;;;;;5036243;28;20415;-70
2023/05/09 01:55:40;;;;;;;20.48;18.85;;;15.40;99.90;;;;;;5042122;28;20786;-70
2023/05/09 01:58:09;;;;;;;20.80;19.20;;;15.40;99.90;;;;;;5030690;28;20465;-71
2023/05/09 02:00:37;;;;;;;20.67;18.77;;;15.40;99.90;;;;;;5031992;28;20866;-71
2023/05/09 02:03:05;;;;;;;20.27;18.58;;;15.40;99.90;;;;;;5027780;28;20415;-70
2023/05/09 02:05:33;;;;;;;21.00;19.30;;;15.40;99.90;;;;;;5029027;28;20446;-71
2023/05/09 02:08:00;;;;;;;21.02;19.23;;;15.30;99.90;;;;;;5029384;28;20416;-71
2023/05/09 02:10:28;;;;;;;21.08;19.27;;;15.30;99.90;;;;;;5037749;28;20424;-70
2023/05/09 02:12:56;;;;;;;20.67;18.88;;;15.30;99.90;;;;;;5036341;28;20426;-71
2023/05/09 02:15:22;;;;;;;22.15;20.02;;;15.30;99.90;;;;;;5042937;28;20449;-72
2023/05/09 02:17:49;;;;;;;19.55;17.85;;;15.30;99.90;;;;;;5029709;28;20427;-70
2023/05/09 02:20:18;;;;;;;20.80;19.10;;;15.30;99.90;;;;;;5038134;28;20430;-72
2023/05/09 02:22:45;;;;;;;21.88;19.88;;;15.30;99.90;;;;;;5037944;28;20418;-72
2023/05/09 02:25:14;;;;;;;20.58;18.77;;;15.20;99.90;;;;;;5041365;28;20442;-71
2023/05/09 02:27:42;;;;;;;21.48;19.67;;;15.20;99.90;;;;;;5030474;28;20423;-71
2023/05/09 02:30:14;;;;;;;21.00;19.30;;;15.20;99.90;;;;;;5036157;28;20413;-71
2023/05/09 02:32:44;;;;;;;22.73;20.73;;;15.20;99.90;;;;;;5031776;28;20424;-72
2023/05/09 02:35:12;;;;;;;22.20;20.40;;;15.20;99.90;;;;;;5040491;28;20423;-70
2023/05/09 02:37:41;;;;;;;22.20;20.20;;;15.20;99.90;;;;;;5029226;28;20943;-71
2023/05/09 02:40:09;;;;;;;22.00;20.20;;;15.20;99.90;;;;;;5032885;28;20889;-70
2023/05/09 02:42:36;;;;;;;22.55;20.65;;;15.20;99.90;;;;;;5042775;28;20421;-70
2023/05/09 02:45:03;;;;;;;22.10;20.40;;;15.20;99.90;;;;;;5029176;28;20419;-70
2023/05/09 02:47:30;;;;;;;22.00;20.10;;;15.10;99.90;;;;;;5029588;28;20427;-71
2023/05/09 02:49:56;;;;;;;22.73;20.73;;;15.10;99.90;;;;;;5029159;28;20419;-71
2023/05/09 02:52:23;;;;;;;21.77;19.90;;;15.10;99.90;;;;;;5022058;28;20445;-71
2023/05/09 02:54:51;;;;;;;22.45;20.45;;;15.10;99.90;;;;;;5042567;28;20571;-71
2023/05/09 02:57:18;;;;;;;22.25;20.35;;;15.10;99.90;;;;;;5035346;28;20442;-71
2023/05/09 02:59:45;;;;;;;22.60;20.70;;;15.00;99.90;;;;;;5033089;28;20916;-71
2023/05/09 03:02:11;;;;;;;22.90;20.80;;;15.00;99.90;;;;;;5035888;28;20809;-70
2023/05/09 03:04:38;;;;;;;24.25;22.05;;;15.00;99.90;;;;;;5033051;28;20419;-72
2023/05/09 03:07:05;;;;;;;22.20;20.30;;;15.00;99.90;;;;;;5032685;28;20442;-71
2023/05/09 03:09:32;;;;;;;22.58;20.58;;;15.00;99.90;;;;;;5033200;28;20449;-71
2023/05/09 03:12:01;;;;;;;22.80;20.90;;;15.10;99.90;;;;;;5040935;28;20421;-72
2023/05/09 03:14:27;;;;;;;23.17;21.27;;;15.10;99.90;;;;;;5072028;28;20413;-71
2023/05/09 03:16:54;;;;;;;22.80;20.80;;;15.10;99.90;;;;;;5054200;28;20427;-71
2023/05/09 03:19:21;;;;;;;23.10;21.10;;;15.10;99.90;;;;;;5053898;28;20517;-72
2023/05/09 03:21:48;;;;;;;22.90;20.90;;;15.10;99.90;;;;;;5047996;28;20429;-70
2023/05/09 03:24:14;;;;;;;23.23;21.13;;;15.10;99.90;;;;;;5035512;28;20415;-71
2023/05/09 03:26:41;;;;;;;23.00;20.90;;;15.10;99.90;;;;;;5038446;28;20430;-71
2023/05/09 03:29:09;;;;;;;23.50;21.40;;;15.10;99.90;;;;;;5040058;28;20422;-72
2023/05/09 03:31:36;;;;;;;23.00;21.10;;;15.10;99.90;;;;;;5035020;28;20709;-72
2023/05/09 03:34:03;;;;;;;23.10;21.17;;;15.10;99.90;;;;;;5046140;28;20414;-70
2023/05/09 03:36:30;;;;;;;23.83;21.77;;;15.10;99.90;;;;;;5057947;28;20441;-70
2023/05/09 03:38:57;;;;;;;22.17;20.35;;;15.10;99.90;;;;;;5061103;28;20516;-70
2023/05/09 03:41:24;;;;;;;22.70;20.70;;;15.00;99.90;;;;;;5058769;28;20424;-70
2023/05/09 03:43:50;;;;;;;23.87;21.67;;;15.00;99.90;;;;;;5051810;28;20508;-71
2023/05/09 03:46:18;;;;;;;23.25;21.15;;;15.00;99.90;;;;;;5033066;28;20442;-71
2023/05/09 03:48:45;;;;;;;23.15;21.05;;;15.00;99.90;;;;;;5034176;28;20426;-71
2023/05/09 03:51:12;;;;;;;23.50;21.40;;;15.00;99.90;;;;;;5043094;28;20417;-71
2023/05/09 03:53:38;;;;;;;23.23;21.27;;;15.00;99.90;;;;;;5051187;28;20414;-73
2023/05/09 03:56:06;;;;;;;22.88;20.88;;;15.00;99.90;;;;;;5050240;28;20422;-71
2023/05/09 03:58:33;;;;;;;23.30;21.30;;;15.10;99.90;;;;;;5052988;28;20426;-71
2023/05/09 04:00:59;;;;;;;23.13;21.10;;;15.00;99.90;;;;;;5043167;28;20443;-71
2023/05/09 04:03:28;;;;;;;24.35;22.30;;;15.00;99.90;;;;;;5044050;28;20417;-71
2023/05/09 04:05:54;;;;;;;22.15;20.23;;;15.00;99.90;;;;;;5053703;28;20424;-71
2023/05/09 04:08:21;;;;;;;23.17;21.13;;;15.00;99.90;;;;;;5032636;28;20435;-71
2023/05/09 04:10:49;;;;;;;23.88;21.77;;;15.00;99.90;;;;;;5036716;28;20797;-72
2023/05/09 04:13:16;;;;;;;23.00;21.00;;;15.00;99.90;;;;;;5050688;28;20421;-73
2023/05/09 04:15:43;;;;;;;22.88;20.85;;;15.00;99.90;;;;;;5044320;28;20483;-71
2023/05/09 04:18:09;;;;;;;22.60;20.60;;;15.00;99.90;;;;;;5031688;28;20442;-71
2023/05/09 04:20:37;;;;;;;22.40;20.40;;;15.00;99.90;;;;;;5031195;28;20962;-70
2023/05/09 04:23:04;;;;;;;23.02;21.00;;;15.00;99.90;;;;;;5038380;28;20420;-72
2023/05/09 04:25:31;;;;;;;22.23;20.25;;;15.00;99.90;;;;;;5051488;28;20895;-71
2023/05/09 04:27:58;;;;;;;22.70;20.60;;;14.90;99.90;;;;;;5029870;28;20427;-73
2023/05/09 04:30:26;;;;;;;23.77;21.77;;;15.00;99.90;;;;;;5029511;28;20472;-70
2023/05/09 04:32:54;;;;;;;23.60;21.40;;;15.00;99.90;;;;;;5029716;28;20817;-71
2023/05/09 04:35:21;;;;;;;22.70;20.80;;;15.00;99.90;;;;;;5036978;28;20426;-69
2023/05/09 04:37:49;;;;;;;22.77;20.88;;;15.00;99.90;;;;;;5032548;28;20454;-72
2023/05/09 04:40:16;;;;;;;23.43;21.23;;;15.00;99.90;;;;;;5029881;28;20431;-70
2023/05/09 04:42:43;;;;;;;23.77;21.38;;;15.00;99.90;;;;;;5031557;28;20427;-70
2023/05/09 04:45:11;;;;;;;23.08;20.98;;;15.00;99.90;;;;;;5030357;28;20419;-70
2023/05/09 04:47:37;;;;;;;24.10;21.80;;;15.00;99.90;;;;;;5027969;28;20504;-70
2023/05/09 04:50:05;;;;;;;22.48;20.35;;;14.90;99.90;;;;;;5030215;28;20442;-70
2023/05/09 04:52:32;;;;;;;23.10;21.00;;;14.90;99.90;;;;;;5025542;28;20438;-70
2023/05/09 04:55:00;;;;;;;22.98;20.52;;;14.90;99.90;;;;;;5036943;28;20800;-70
2023/05/09 04:57:27;;;;;;;24.35;21.88;;;14.90;99.90;;;;;;5029303;28;21091;-69
2023/05/09 04:59:54;;;;;;;23.65;21.25;;;14.90;99.90;;;;;;5028655;28;20433;-70
2023/05/09 05:02:21;;;;;;;23.73;21.63;;;15.00;99.90;;;;;;5026350;28;20513;-70
2023/05/09 05:04:47;;;;;;;22.38;20.08;;;15.00;99.90;;;;;;5032141;28;20423;-70
2023/05/09 05:07:14;;;;;;;22.50;20.50;;;15.00;99.90;;;;;;5028640;28;20438;-70
2023/05/09 05:09:41;;;;;;;22.80;20.80;;;15.10;99.90;;;;;;5032820;28;20987;-71
2023/05/09 05:12:09;;;;;;;22.38;20.38;;;15.10;99.90;;;;;;5032465;28;20778;-70
2023/05/09 05:14:36;;;;;;;20.92;19.20;;;15.20;99.90;;;;;;5029898;28;20473;-69
2023/05/09 05:17:03;;;;;;;21.50;19.50;;;15.20;99.90;;;;;;5027338;28;20869;-70
2023/05/09 05:19:29;;;;;;;22.35;20.45;;;15.20;99.90;;;;;;5032366;28;20433;-70
2023/05/09 05:21:56;;;;;;;20.80;18.90;;;15.30;99.90;;;;;;5030478;28;20431;-69
2023/05/09 05:24:23;;;;;;;21.98;20.17;;;15.30;99.90;;;;;;5033719;28;20436;-71
2023/05/09 05:26:49;;;;;;;21.00;19.20;;;15.30;99.90;;;;;;5036592;28;20450;-70
2023/05/09 05:29:19;;;;;;;21.00;19.17;;;15.30;99.90;;;;;;5043447;28;20405;-72
2023/05/09 05:31:45;;;;;;;20.90;19.20;;;15.40;99.90;;;;;;5054319;28;20445;-71
2023/05/09 05:34:13;;;;;;;21.38;19.50;;;15.50;99.90;;;;;;5058035;28;20406;-71
2023/05/09 05:36:40;;;;;;;20.25;18.45;;;15.50;99.90;;;;;;5037836;28;20427;-72
2023/05/09 05:39:06;;;;;;;21.30;19.40;;;15.60;99.90;;;;;;5037121;28;20431;-70
2023/05/09 05:41:33;;;;;;;20.73;18.92;;;15.60;99.90;;;;;;5029122;28;20422;-72
2023/05/09 05:44:00;;;;;;;21.20;19.40;;;15.70;99.90;;;;;;5029946;28;20430;-71
2023/05/09 05:46:28;;;;;;;20.00;18.40;;;15.70;99.90;;;;;;5026792;28;20442;-71
2023/05/09 05:48:55;;;;;;;21.90;20.00;;;15.80;99.90;;;;;;5026626;28;20423;-71
2023/05/09 05:51:22;;;;;;;20.90;19.10;;;15.80;99.90;;;;;;5029701;28;20423;-70
2023/05/09 05:53:48;;;;;;;21.10;19.20;;;15.70;99.90;;;;;;5029671;28;20419;-70
2023/05/09 05:56:15;;;;;;;21.50;19.60;;;15.70;99.90;;;;;;5062390;22;20659;-64
2023/05/09 05:58:42;;;;;;;22.02;20.13;;;15.70;99.90;;;;;;5039388;28;20441;-66
2023/05/09 06:01:08;;;;;;;21.50;19.70;;;15.70;99.90;;;;;;5044825;28;20433;-66
2023/05/09 06:03:36;;;;;;;22.88;20.88;;;15.60;99.90;;;;;;5054799;28;20415;-65
2023/05/09 06:06:03;;;;;;;22.17;20.27;;;15.60;99.90;;;;;;5053534;28;20436;-64
2023/05/09 06:08:31;;;;;;;22.00;20.10;;;15.70;99.90;;;;;;5060567;28;20421;-66
2023/05/09 06:11:01;;;;;;;21.50;19.55;;;15.80;99.90;;;;;;5052702;28;20413;-65
2023/05/09 06:13:27;;;;;;;22.67;20.58;;;15.80;99.90;;;;;;5048779;28;20887;-64
2023/05/09 06:15:55;;;;;;;21.45;19.63;;;15.80;99.90;;;;;;5055256;28;20431;-66
2023/05/09 06:18:22;;;;;;;22.60;20.60;;;15.90;99.90;;;;;;5065739;28;20415;-66
2023/05/09 06:20:50;;;;;;;21.83;19.92;;;15.90;99.90;;;;;;5052124;28;20425;-66
2023/05/09 06:23:20;;;;;;;21.80;19.80;;;16.00;99.90;;;;;;5048790;28;20912;-66
2023/05/09 06:25:47;;;;;;;22.05;20.20;;;16.00;99.90;;;;;;5047875;28;20505;-65
2023/05/09 06:28:14;;;;;;;21.73;19.83;;;16.00;99.90;;;;;;5056843;28;20427;-67
2023/05/09 06:30:41;;;;;;;21.85;20.05;;;16.10;99.90;;;;;;5048832;28;20427;-67
2023/05/09 06:33:08;;;;;;;21.60;19.80;;;16.20;99.90;;;;;;5065220;28;20565;-67
2023/05/09 06:35:34;;;;;;;21.30;19.40;;;16.20;99.90;;;;;;5049294;28;20424;-67
2023/05/09 06:38:03;;;;;;;20.75;18.67;;;16.30;99.90;;;;;;5064795;28;20874;-67
2023/05/09 06:40:29;;;;;;;19.80;18.10;;;16.40;99.90;;;;;;5049406;28;20436;-65
2023/05/09 06:42:56;;;;;;;21.27;19.38;;;16.40;99.90;;;;;;5059476;28;20814;-66
2023/05/09 06:45:23;;;;;;;20.38;18.67;;;16.50;99.90;;;;;;5058931;28;20419;-66
2023/05/09 06:47:49;;;;;;;18.98;17.48;;;16.60;99.90;;;;;;5060445;28;20442;-67
2023/05/09 06:50:16;;;;;;;19.42;17.83;;;16.70;99.90;;;;;;5048488;28;20409;-66
2023/05/09 06:52:43;;;;;;;18.93;17.33;;;16.70;99.90;;;;;;5048395;28;20418;-67
2023/05/09 06:55:11;;;;;;;19.27;17.67;;;16.80;99.90;;;;;;5048571;28;20872;-67
2023/05/09 06:57:39;;;;;;;18.25;16.65;;;17.00;99.90;;;;;;5050840;28;20797;-67
2023/05/09 07:00:08;;;;;;;17.20;15.85;;;17.20;99.90;;;;;;5057677;28;20527;-66
2023/05/09 07:02:34;;;;;;;16.45;15.05;;;17.40;99.90;;;;;;5044695;28;20427;-65
2023/05/09 07:05:01;;;;;;;16.38;14.95;;;17.50;99.90;;;;;;5066986;28;20419;-65
2023/05/09 07:07:28;;;;;;;16.58;15.07;;;17.50;99.90;;;;;;5051950;28;20920;-66
2023/05/09 07:09:55;;;;;;;14.80;13.50;;;17.60;99.90;;;;;;5059182;28;21082;-66
2023/05/09 07:12:23;;;;;;;11.85;10.85;;;17.80;99.10;;;;;;5048119;28;20421;-66
2023/05/09 07:14:49;;;;;;;7.55;6.95;;;17.90;98.50;;;;;;5052206;28;20411;-65
2023/05/09 07:17:16;;;;;;;5.68;5.28;;;18.20;95.70;;;;;;5053462;28;20431;-66
2023/05/09 07:19:43;;;;;;;5.22;4.75;;;18.30;93.90;;;;;;5037857;28;20433;-65
2023/05/09 07:22:09;;;;;;;5.38;4.97;;;18.30;92.90;;;;;;5064259;28;20419;-66
2023/05/09 07:24:36;;;;;;;5.18;4.78;;;18.40;92.70;;;;;;5047850;28;20424;-66
2023/05/09 07:27:03;;;;;;;5.80;5.30;;;18.40;91.90;;;;;;5049008;28;20809;-66
2023/05/09 07:29:31;;;;;;;5.72;5.22;;;18.30;91.90;;;;;;5049267;28;20461;-65
2023/05/09 07:31:58;;;;;;;5.72;5.22;;;18.30;91.90;;;;;;5054122;28;20429;-66
2023/05/09 07:34:25;;;;;;;5.50;5.10;;;18.50;92.20;;;;;;5061225;28;20411;-66
2023/05/09 07:36:51;;;;;;;6.40;6.00;;;18.70;92.10;;;;;;5054160;28;20444;-65
2023/05/09 07:39:18;;;;;;;5.97;5.47;;;18.80;91.30;;;;;;5058043;28;20458;-66
2023/05/09 07:41:45;;;;;;;5.97;5.47;;;18.90;91.70;;;;;;5068068;28;20416;-66
2023/05/09 07:44:11;;;;;;;6.10;5.60;;;19.00;91.20;;;;;;5052569;28;20417;-66
2023/05/09 07:46:40;;;;;;;5.63;5.18;;;19.00;90.90;;;;;;5049703;28;20413;-67
2023/05/09 07:49:08;;;;;;;6.13;5.63;;;19.10;91.10;;;;;;5064798;28;20674;-67
2023/05/09 07:51:34;;;;;;;4.80;4.40;;;19.20;90.50;;;;;;5057780;28;20426;-67
2023/05/09 07:54:01;;;;;;;5.10;4.70;;;19.30;87.80;;;;;;5051589;28;20475;-67
2023/05/09 07:56:28;;;;;;;5.10;4.70;;;19.40;87.30;;;;;;5049975;28;20799;-67
2023/05/09 07:58:54;;;;;;;5.00;4.60;;;19.40;86.80;;;;;;5057474;28;20417;-67
2023/05/09 08:01:21;;;;;;;5.38;4.97;;;19.40;86.00;;;;;;5052845;28;20425;-66
2023/05/09 08:03:49;;;;;;;4.35;3.95;;;19.30;85.80;;;;;;5059171;28;20424;-66
2023/05/09 08:06:16;;;;;;;6.40;3.90;;;19.20;86.30;;;;;;5060988;28;20424;-64
2023/05/09 08:08:42;;;;;;;4.10;3.70;;;19.20;84.20;;;;;;5058221;28;20934;-66
2023/05/09 08:11:09;;;;;;;3.60;3.30;;;19.20;83.70;;;;;;5048577;28;20429;-65
2023/05/09 08:13:36;;;;;;;3.50;3.20;;;19.30;82.00;;;;;;5052394;28;20439;-65
2023/05/09 08:16:03;;;;;;;3.60;2.80;;;19.20;81.70;;;;;;5048917;28;20429;-66
2023/05/09 08:18:30;;;;;;;2.90;2.60;;;19.20;81.40;;;;;;5059546;28;20871;-66
2023/05/09 08:20:58;;;;;;;2.80;2.60;;;19.10;81.00;;;;;;5052150;28;20811;-65
2023/05/09 08:23:25;;;;;;;3.40;3.10;;;19.20;81.90;;;;;;5065831;28;20420;-66
2023/05/09 08:25:53;;;;;;;2.92;2.63;;;19.40;81.20;;;;;;5069538;28;20415;-66
2023/05/09 08:28:22;;;;;;;3.10;2.63;;;19.50;78.20;;;;;;5049306;28;20430;-64
2023/05/09 08:30:49;;;;;;;2.80;2.30;;;19.50;77.60;;;;;;5042480;28;20427;-66
2023/05/09 08:33:16;;;;;;;2.60;2.20;;;19.50;77.50;;;;;;5062190;28;20777;-66
2023/05/09 08:35:43;;;;;;;2.60;2.40;;;19.70;76.40;;;;;;5066562;28;20412;-65
2023/05/09 08:38:11;;;;;;;2.15;1.95;;;19.70;73.00;;;;;;5048399;28;20439;-65
2023/05/09 08:40:38;;;;;;;3.17;2.20;;;19.80;71.90;;;;;;5057315;28;20432;-66
2023/05/09 08:43:07;;;;;;;2.42;1.92;;;19.90;71.50;;;;;;5058565;28;20787;-65
2023/05/09 08:45:39;;;;;;;2.58;2.00;;;19.90;70.00;;;;;;5045034;28;20429;-65
2023/05/09 08:48:06;;;;;;;2.90;2.30;;;20.10;70.60;;;;;;5063398;28;20423;-65
2023/05/09 08:50:34;;;;;;;2.30;1.80;;;20.30;71.30;;;;;;5054792;28;20931;-65
2023/05/09 08:53:01;;;;;;;2.33;1.90;;;20.60;66.70;;;;;;5057845;28;20486;-66
2023/05/09 08:55:30;;;;;;;2.65;2.10;;;20.70;66.30;;;;;;5059593;28;20420;-65
2023/05/09 08:57:58;;;;;;;1.90;1.80;;;20.90;64.30;;;;;;5053770;28;20505;-64
2023/05/09 09:00:26;;;;;;;2.00;1.80;;;20.90;65.50;;;;;;5048604;28;20525;-66
2023/05/09 09:02:54;;;;;;;1.90;1.80;;;21.20;64.90;;;;;;5053910;28;20429;-65
2023/05/09 09:05:23;;;;;;;2.90;1.80;;;21.40;64.30;;;;;;5044562;28;20435;-66
2023/05/09 09:07:50;;;;;;;2.08;1.60;;;21.70;63.10;;;;;;5064039;28;20870;-65
2023/05/09 09:10:19;;;;;;;2.60;1.52;;;22.00;63.20;;;;;;5056590;28;20420;-65
2023/05/09 09:12:48;;;;;;;2.20;1.58;;;22.20;57.50;;;;;;5046382;28;20855;-65
2023/05/09 09:15:17;;;;;;;2.10;1.52;;;22.10;59.10;;;;;;5059754;28;20943;-65
2023/05/09 09:17:50;;;;;;;1.80;1.60;;;21.90;57.70;;;;;;5054217;28;20413;-66
2023/05/09 09:20:21;;;;;;;1.80;1.45;;;21.90;59.40;;;;;;5059731;28;20446;-65
2023/05/09 09:22:49;;;;;;;2.10;1.90;;;22.00;58.90;;;;;;5052216;28;20417;-65
2023/05/09 09:25:16;;;;;;;2.35;1.60;;;22.00;59.20;;;;;;5047812;28;20439;-65
2023/05/09 09:27:42;;;;;;;3.30;1.70;;;22.20;58.30;;;;;;5056311;28;20784;-66
2023/05/09 09:30:12;;;;;;;2.05;1.85;;;22.40;60.10;;;;;;5065611;28;20912;-66
2023/05/09 09:32:39;;;;;;;2.15;1.92;;;22.60;56.70;;;;;;5050449;28;20709;-66
2023/05/09 09:35:08;;;;;;;2.10;1.60;;;22.70;57.00;;;;;;5061799;28;20497;-66
2023/05/09 09:37:35;;;;;;;2.43;1.60;;;22.70;55.10;;;;;;5062477;28;20893;-65
2023/05/09 09:40:03;;;;;;;1.50;1.40;;;22.80;57.10;;;;;;5051125;28;20903;-65
2023/05/09 09:42:41;;;;;;;2.47;1.80;;;22.70;55.10;;;;;;5049360;28;20413;-65
2023/05/09 09:45:12;;;;;;;2.20;1.50;;;22.50;55.90;;;;;;5047620;28;20445;-65
2023/05/09 09:47:39;;;;;;;2.97;2.00;;;22.30;57.00;;;;;;5061032;28;20460;-65
2023/05/09 09:50:11;;;;;;;2.00;1.55;;;22.20;57.60;;;;;;5050518;28;20719;-65
2023/05/09 09:52:42;;;;;;;1.70;1.52;;;22.20;58.90;;;;;;5049236;28;20599;-65
2023/05/09 09:55:09;;;;;;;1.90;1.60;;;22.40;58.90;;;;;;5035607;28;20491;-66
2023/05/09 09:57:37;;;;;;;1.80;1.48;;;22.50;56.80;;;;;;5055021;28;20443;-66
2023/05/09 10:00:05;;;;;;;2.40;1.35;;;22.70;56.70;;;;;;5067568;28;20569;-68
2023/05/09 10:02:33;;;;;;;4.17;2.10;;;22.90;54.80;;;;;;5062112;28;20462;-67
2023/05/09 10:05:06;;;;;;;2.10;1.70;;;22.90;54.30;;;;;;5064171;28;20487;-67
2023/05/09 10:07:34;;;;;;;1.90;1.70;;;23.10;54.20;;;;;;5060646;28;20423;-67
2023/05/09 10:10:04;;;;;;;3.10;1.90;;;23.30;52.80;;;;;;5061756;28;20435;-67
2023/05/09 10:12:34;;;;;;;2.90;1.90;;;23.30;53.80;;;;;;5056484;28;20417;-67
2023/05/09 10:15:03;;;;;;;1.60;1.50;;;23.30;52.50;;;;;;5053767;28;20510;-67
2023/05/09 10:17:31;;;;;;;2.70;1.70;;;23.40;52.30;;;;;;5055649;28;20423;-67
2023/05/09 10:20:04;;;;;;;2.70;1.90;;;23.20;52.20;;;;;;5068045;28;20512;-68
2023/05/09 10:22:34;;;;;;;2.80;1.70;;;23.00;52.50;;;;;;5056455;28;20454;-67
2023/05/09 10:25:03;;;;;;;2.40;1.90;;;22.70;54.10;;;;;;5056664;28;20417;-67
2023/05/09 10:27:34;;;;;;;3.20;1.80;;;22.70;54.50;;;;;;5055541;28;20421;-67
2023/05/09 10:30:09;;;;;;;3.80;2.10;;;22.60;54.90;;;;;;5048131;28;20907;-66
2023/05/09 10:32:42;;;;;;;2.30;2.10;;;22.40;54.90;;;;;;5052970;28;20428;-66
2023/05/09 10:35:12;;;;;;;2.10;1.80;;;22.30;55.10;;;;;;5062802;28;20443;-67
2023/05/09 10:37:39;;;;;;;2.30;2.10;;;22.10;56.40;;;;;;5057194;28;20466;-66
2023/05/09 10:40:07;;;;;;;2.60;2.00;;;22.00;57.40;;;;;;5057622;28;20431;-66
2023/05/09 10:42:35;;;;;;;2.30;2.00;;;22.00;57.60;;;;;;5048357;28;20421;-67
2023/05/09 10:45:02;;;;;;;5.22;4.50;;;22.00;57.00;;;;;;5061055;28;21073;-67
2023/05/09 10:47:30;;;;;;;2.30;2.00;;;22.10;58.90;;;;;;5061192;28;20924;-67
2023/05/09 10:49:58;;;;;;;2.17;1.98;;;22.20;57.30;;;;;;5057058;28;20797;-67
2023/05/09 10:52:32;;;;;;;2.80;1.90;;;22.40;57.60;;;;;;5051963;28;20417;-67
2023/05/09 10:55:00;;;;;;;2.30;2.10;;;22.60;56.40;;;;;;5061814;28;20420;-67
2023/05/09 10:57:29;;;;;;;2.13;1.83;;;22.60;55.40;;;;;;5046779;28;20417;-67
2023/05/09 10:59:58;;;;;;;3.78;2.10;;;22.50;55.90;;;;;;5051718;28;20430;-66
2023/05/09 11:02:28;;;;;;;2.83;2.10;;;22.40;56.30;;;;;;5064260;28;20427;-65
2023/05/09 11:05:19;;;;;;;2.30;1.80;;;22.30;56.20;;;;;;5064069;28;20445;-65
2023/05/09 11:07:47;;;;;;;2.85;2.00;;;22.30;57.80;;;;;;5048254;28;20410;-66
2023/05/09 11:10:16;;;;;;;2.05;1.85;;;22.40;57.50;;;;;;5048291;28;20767;-66
2023/05/09 11:12:56;;;;;;;2.20;2.00;;;22.70;56.90;;;;;;5047559;28;20893;-66
2023/05/09 11:15:23;;;;;;;1.88;1.77;;;22.90;55.60;;;;;;5047448;28;20425;-66
2023/05/09 11:18:04;;;;;;;2.10;2.00;;;23.00;53.60;;;;;;5049761;28;20485;-68
2023/05/09 11:20:37;;;;;;;2.00;1.90;;;23.10;54.20;;;;;;5047478;28;20502;-67
2023/05/09 11:23:10;;;;;;;2.20;2.00;;;23.20;54.40;;;;;;5049924;28;20433;-67
2023/05/09 11:25:40;;;;;;;2.38;2.17;;;23.20;55.80;;;;;;5060625;28;20840;-67
2023/05/09 11:28:06;;;;;;;2.33;2.10;;;23.20;55.00;;;;;;5059613;28;20463;-67
2023/05/09 11:30:39;;;;;;;3.00;2.17;;;23.40;54.30;;;;;;5071624;28;20418;-67
2023/05/09 11:33:06;;;;;;;2.33;2.10;;;23.70;54.20;;;;;;5054825;28;20454;-67
2023/05/09 11:35:36;;;;;;;3.05;2.10;;;24.00;52.50;;;;;;5067807;28;20416;-66
2023/05/09 11:38:06;;;;;;;4.30;1.97;;;24.10;51.60;;;;;;5047562;28;20433;-67
2023/05/09 11:40:34;;;;;;;2.30;2.10;;;24.20;50.40;;;;;;5061829;28;20776;-65
2023/05/09 11:43:01;;;;;;;4.32;2.10;;;24.30;50.70;;;;;;5060626;28;20419;-66
2023/05/09 11:45:29;;;;;;;2.42;2.22;;;24.60;50.80;;;;;;5055109;28;20867;-67
2023/05/09 11:47:56;;;;;;;2.20;2.00;;;24.70;48.60;;;;;;5057426;28;20943;-67
2023/05/09 11:50:23;;;;;;;2.33;1.98;;;24.70;49.30;;;;;;5064192;28;20430;-66
2023/05/09 11:52:51;;;;;;;2.63;1.95;;;24.60;49.70;;;;;;5051495;28;20417;-66
2023/05/09 11:55:21;;;;;;;2.38;1.80;;;24.50;49.50;;;;;;5064749;28;20417;-67
2023/05/09 11:57:50;;;;;;;2.58;1.75;;;24.30;48.70;;;;;;5057813;28;20794;-66
2023/05/09 12:00:18;;;;;;;2.60;2.00;;;24.20;49.10;;;;;;5057268;28;20425;-67
2023/05/09 12:02:46;;;;;;;2.40;1.73;;;24.00;49.60;;;;;;5056050;28;20432;-65
2023/05/09 12:05:16;;;;;;;2.80;1.80;;;23.90;48.80;;;;;;5065269;28;20417;-66
2023/05/09 12:07:43;;;;;;;2.10;1.70;;;23.90;49.30;;;;;;5055643;28;20432;-66
2023/05/09 12:10:12;;;;;;;2.08;1.80;;;23.90;49.70;;;;;;5060002;28;20421;-66
2023/05/09 12:12:44;;;;;;;2.22;1.90;;;23.90;50.50;;;;;;5051343;28;20417;-67
2023/05/09 12:15:12;;;;;;;2.03;1.80;;;23.80;51.00;;;;;;5051471;28;20895;-67
2023/05/09 12:17:40;;;;;;;2.25;2.05;;;23.80;52.30;;;;;;5053516;28;20427;-66
2023/05/09 12:20:08;;;;;;;2.80;2.00;;;23.90;50.90;;;;;;5066976;28;20431;-66
2023/05/09 12:22:36;;;;;;;2.53;2.33;;;23.70;51.10;;;;;;5065120;28;20437;-66
2023/05/09 12:25:06;;;;;;;2.70;2.50;;;23.40;52.50;;;;;;5060201;28;20418;-67
2023/05/09 12:27:34;;;;;;;3.37;2.70;;;23.30;53.60;;;;;;5057383;28;20424;-66
2023/05/09 12:30:07;;;;;;;2.60;2.40;;;23.20;54.50;;;;;;5060603;28;20414;-67
2023/05/09 12:32:35;;;;;;;3.78;2.78;;;23.10;54.50;;;;;;5052603;28;20427;-66
2023/05/09 12:35:02;;;;;;;2.80;2.60;;;22.90;55.50;;;;;;5067603;28;20430;-66
2023/05/09 12:37:31;;;;;;;2.53;2.33;;;22.90;55.60;;;;;;5053075;28;20449;-66
2023/05/09 12:40:03;;;;;;;2.83;2.63;;;23.10;55.10;;;;;;5049742;28;20444;-66